createdAt,value
2019-05-20T00:00:14.713Z,88.72
2019-05-20T00:02:43.237Z,88.51
2019-05-20T00:05:11.809Z,88.99
2019-05-20T00:07:40.316Z,89.00
2019-05-20T00:10:09.631Z,88.99
2019-05-20T00:12:38.185Z,88.93
2019-05-20T00:15:06.928Z,88.67
2019-05-20T00:17:35.452Z,88.32
2019-05-20T00:20:06.321Z,88.48
2019-05-20T00:22:34.817Z,88.15
2019-05-20T00:25:04.697Z,87.77
2019-05-20T00:27:33.264Z,87.24
2019-05-20T00:30:01.784Z,87.14
2019-05-20T00:32:40.614Z,87.52
2019-05-20T00:35:00.498Z,87.78
2019-05-20T00:37:28.992Z,87.74
2019-05-20T00:39:57.488Z,87.70
2019-05-20T00:42:26.456Z,87.59
2019-05-20T00:44:54.969Z,87.69
2019-05-20T00:47:23.495Z,87.82
2019-05-20T00:49:52.001Z,87.75
2019-05-20T00:52:20.631Z,87.95
2019-05-20T00:54:49.204Z,87.95
2019-05-20T00:57:17.776Z,88.02
2019-05-20T00:59:46.255Z,88.16
2019-05-20T01:02:14.745Z,88.36
2019-05-20T01:04:43.256Z,88.15
2019-05-20T01:07:11.744Z,88.49
2019-05-20T01:09:40.267Z,88.59
2019-05-20T01:12:08.852Z,88.81
2019-05-20T01:14:37.343Z,88.85
2019-05-20T01:17:05.833Z,89.05
2019-05-20T01:19:34.357Z,89.62
2019-05-20T01:22:02.849Z,89.95
2019-05-20T01:24:31.351Z,90.12
2019-05-20T01:26:59.850Z,90.23
2019-05-20T01:29:28.341Z,90.16
2019-05-20T01:31:56.830Z,90.14
2019-05-20T01:34:25.339Z,90.02
2019-05-20T01:36:53.831Z,90.00
2019-05-20T01:39:22.347Z,90.23
2019-05-20T01:41:50.850Z,90.14
2019-05-20T01:44:19.337Z,90.24
2019-05-20T01:46:47.857Z,90.33
2019-05-20T01:49:16.352Z,90.31
2019-05-20T01:51:44.839Z,90.42
2019-05-20T01:54:13.340Z,90.46
2019-05-20T01:56:41.831Z,90.36
2019-05-20T01:59:10.311Z,90.45
2019-05-20T02:01:39.149Z,90.38
2019-05-20T02:04:07.620Z,90.52
2019-05-20T02:06:36.119Z,90.46
2019-05-20T02:09:07.646Z,90.19
2019-05-20T02:11:36.095Z,90.03
2019-05-20T02:14:06.260Z,89.97
2019-05-20T02:16:35.012Z,90.00
2019-05-20T02:19:03.688Z,89.99
2019-05-20T02:21:32.163Z,89.90
2019-05-20T02:24:00.647Z,90.04
2019-05-20T02:26:29.108Z,90.22
2019-05-20T02:28:57.560Z,90.12
2019-05-20T02:31:26.050Z,89.95
2019-05-20T02:33:54.497Z,90.04
2019-05-20T02:36:23.019Z,90.00
2019-05-20T02:38:51.593Z,89.70
2019-05-20T02:41:20.056Z,89.56
2019-05-20T02:43:48.562Z,89.65
2019-05-20T02:46:17.088Z,89.56
2019-05-20T02:48:45.646Z,89.43
2019-05-20T02:51:14.087Z,89.52
2019-05-20T02:53:42.549Z,89.30
2019-05-20T02:56:11.047Z,89.52
2019-05-20T02:58:39.497Z,89.61
2019-05-20T03:01:07.967Z,89.62
2019-05-20T03:03:36.430Z,89.76
2019-05-20T03:06:04.951Z,89.99
2019-05-20T03:08:33.392Z,90.09
2019-05-20T03:11:01.891Z,90.02
2019-05-20T03:13:30.404Z,89.80
2019-05-20T03:15:58.847Z,89.94
2019-05-20T03:18:27.310Z,89.69
2019-05-20T03:20:55.759Z,89.74
2019-05-20T03:23:24.235Z,89.70
2019-05-20T03:25:53.041Z,89.92
2019-05-20T03:28:21.499Z,89.82
2019-05-20T03:30:50.073Z,90.22
2019-05-20T03:33:18.662Z,90.49
2019-05-20T03:35:47.197Z,90.56
2019-05-20T03:38:15.751Z,90.43
2019-05-20T03:40:44.293Z,90.34
2019-05-20T03:43:12.758Z,89.95
2019-05-20T03:45:41.279Z,89.69
2019-05-20T03:48:09.811Z,89.88
2019-05-20T03:50:38.285Z,90.14
2019-05-20T03:53:06.831Z,90.20
2019-05-20T03:55:35.254Z,90.26
2019-05-20T03:58:03.799Z,90.30
2019-05-20T04:00:45.981Z,90.33
2019-05-20T04:03:15.405Z,89.91
2019-05-20T04:05:44.733Z,89.67
2019-05-20T04:08:13.238Z,89.47
2019-05-20T04:10:41.827Z,89.60
2019-05-20T04:13:10.419Z,89.44
2019-05-20T04:15:38.974Z,89.87
2019-05-20T04:18:07.525Z,90.00
2019-05-20T04:20:36.016Z,89.83
2019-05-20T04:23:04.588Z,89.76
2019-05-20T04:25:33.134Z,89.40
2019-05-20T04:28:01.631Z,89.56
2019-05-20T04:30:30.254Z,89.59
2019-05-20T04:32:58.798Z,89.69
2019-05-20T04:35:27.412Z,89.69
2019-05-20T04:37:55.974Z,89.42
2019-05-20T04:40:24.489Z,88.93
2019-05-20T04:42:52.976Z,88.70
2019-05-20T04:45:21.515Z,89.29
2019-05-20T04:47:49.973Z,89.59
2019-05-20T04:50:18.624Z,89.69
2019-05-20T04:52:47.072Z,89.48
2019-05-20T04:55:15.637Z,89.84
2019-05-20T04:57:44.164Z,90.03
2019-05-20T05:00:12.980Z,90.02
2019-05-20T05:02:43.652Z,90.00
2019-05-20T05:05:12.034Z,90.03
2019-05-20T05:07:40.545Z,89.92
2019-05-20T05:10:11.724Z,90.00
2019-05-20T05:12:40.331Z,90.13
2019-05-20T05:15:10.936Z,90.08
2019-05-20T05:17:39.447Z,89.71
2019-05-20T05:20:17.607Z,89.62
2019-05-20T05:22:38.521Z,89.36
2019-05-20T05:25:07.727Z,89.41
2019-05-20T05:27:36.188Z,89.38
2019-05-20T05:30:09.494Z,89.51
2019-05-20T05:32:41.466Z,89.49
2019-05-20T05:35:12.084Z,89.50
2019-05-20T05:37:40.606Z,89.19
2019-05-20T05:40:09.429Z,89.16
2019-05-20T05:42:37.868Z,89.49
2019-05-20T05:45:07.535Z,89.42
2019-05-20T05:47:36.147Z,89.45
2019-05-20T05:50:06.257Z,89.47
2019-05-20T05:52:34.732Z,89.21
2019-05-20T05:55:03.387Z,88.96
2019-05-20T05:57:31.923Z,89.18
2019-05-20T06:00:00.471Z,89.12
2019-05-20T06:02:28.913Z,88.77
2019-05-20T06:04:57.394Z,87.77
2019-05-20T06:07:25.870Z,87.42
2019-05-20T06:09:54.343Z,87.42
2019-05-20T06:12:22.819Z,86.99
2019-05-20T06:14:51.314Z,86.65
2019-05-20T06:17:19.752Z,86.80
2019-05-20T06:19:48.208Z,87.26
2019-05-20T06:22:16.746Z,87.36
2019-05-20T06:24:45.358Z,86.67
2019-05-20T06:27:13.768Z,85.86
2019-05-20T06:29:42.256Z,85.63
2019-05-20T06:32:10.836Z,85.79
2019-05-20T06:34:42.263Z,86.25
2019-05-20T06:37:14.262Z,86.13
2019-05-20T06:39:42.725Z,86.76
2019-05-20T06:42:11.272Z,86.93
2019-05-20T06:44:52.276Z,87.00
2019-05-20T06:47:09.946Z,85.90
2019-05-20T06:49:38.447Z,85.88
2019-05-20T06:52:06.942Z,85.84
2019-05-20T06:54:35.405Z,85.60
2019-05-20T06:57:03.877Z,85.46
2019-05-20T06:59:32.381Z,85.22
2019-05-20T07:02:00.813Z,85.48
2019-05-20T07:04:29.602Z,85.46
2019-05-20T07:06:58.091Z,85.60
2019-05-20T07:09:26.593Z,84.71
2019-05-20T07:11:55.050Z,84.17
2019-05-20T07:14:23.565Z,83.96
2019-05-20T07:16:52.015Z,84.03
2019-05-20T07:19:20.599Z,83.76
2019-05-20T07:21:49.043Z,84.59
2019-05-20T07:24:17.554Z,83.77
2019-05-20T07:26:46.147Z,83.09
2019-05-20T07:29:14.601Z,83.29
2019-05-20T07:31:43.085Z,83.62
2019-05-20T07:34:11.569Z,82.47
2019-05-20T07:36:40.040Z,82.25
2019-05-20T07:39:08.691Z,82.15
2019-05-20T07:41:41.183Z,82.82
2019-05-20T07:44:07.336Z,82.56
2019-05-20T07:46:35.893Z,83.69
2019-05-20T07:49:04.525Z,83.37
2019-05-20T07:51:34.097Z,83.87
2019-05-20T07:54:03.474Z,84.22
2019-05-20T07:56:35.081Z,84.25
2019-05-20T07:59:06.561Z,84.62
2019-05-20T08:01:35.228Z,84.95
2019-05-20T08:04:03.752Z,85.45
2019-05-20T08:06:32.329Z,85.54
2019-05-20T08:09:00.817Z,85.93
2019-05-20T08:11:29.401Z,86.82
2019-05-20T08:13:57.950Z,86.80
2019-05-20T08:16:26.491Z,86.80
2019-05-20T08:18:54.983Z,86.56
2019-05-20T08:21:23.436Z,85.99
2019-05-20T08:23:51.914Z,86.30
2019-05-20T08:26:20.564Z,86.83
2019-05-20T08:28:49.007Z,87.08
2019-05-20T08:31:17.576Z,86.51
2019-05-20T08:33:46.100Z,85.73
2019-05-20T08:36:14.630Z,85.40
2019-05-20T08:38:43.200Z,84.64
2019-05-20T08:41:11.745Z,83.60
2019-05-20T08:43:40.257Z,83.56
2019-05-20T08:46:08.873Z,83.38
2019-05-20T08:48:37.414Z,83.09
2019-05-20T08:51:05.846Z,83.75
2019-05-20T08:53:34.346Z,83.34
2019-05-20T08:56:02.829Z,84.45
2019-05-20T08:58:31.282Z,84.80
2019-05-20T09:00:59.740Z,85.05
2019-05-20T09:03:30.562Z,84.08
2019-05-20T09:05:58.580Z,84.52
2019-05-20T09:08:27.113Z,84.38
2019-05-20T09:10:55.598Z,85.08
2019-05-20T09:13:24.103Z,85.39
2019-05-20T09:15:52.629Z,85.90
2019-05-20T09:18:21.149Z,85.28
2019-05-20T09:20:49.596Z,85.57
2019-05-20T09:23:18.081Z,86.10
2019-05-20T09:25:46.547Z,85.23
2019-05-20T09:28:15.084Z,85.44
2019-05-20T09:30:43.737Z,85.76
2019-05-20T09:33:12.369Z,85.82
2019-05-20T09:35:40.925Z,86.22
2019-05-20T09:38:19.735Z,86.73
2019-05-20T09:40:45.195Z,86.98
2019-05-20T09:43:13.776Z,87.10
2019-05-20T09:45:43.114Z,86.26
2019-05-20T09:48:12.341Z,86.20
2019-05-20T09:50:41.044Z,86.60
2019-05-20T09:53:11.261Z,85.62
2019-05-20T09:55:39.995Z,86.66
2019-05-20T09:58:08.597Z,86.13
2019-05-20T10:00:37.183Z,86.20
2019-05-20T10:03:07.029Z,86.11
2019-05-20T10:05:37.354Z,86.46
2019-05-20T10:08:06.723Z,85.39
2019-05-20T10:10:35.378Z,86.48
2019-05-20T10:13:04.207Z,86.31
2019-05-20T10:15:32.916Z,85.09
2019-05-20T10:18:01.434Z,85.56
2019-05-20T10:20:29.895Z,84.99
2019-05-20T10:22:58.414Z,85.31
2019-05-20T10:25:27.046Z,85.83
2019-05-20T10:27:57.640Z,86.05
2019-05-20T10:30:25.920Z,86.80
2019-05-20T10:32:54.427Z,86.73
2019-05-20T10:35:22.991Z,87.56
2019-05-20T10:37:51.482Z,85.63
2019-05-20T10:40:20.088Z,85.87
2019-05-20T10:42:48.543Z,86.75
2019-05-20T10:45:17.140Z,87.18
2019-05-20T10:47:45.774Z,87.33
2019-05-20T10:50:14.500Z,87.46
2019-05-20T10:52:42.975Z,87.04
2019-05-20T10:55:11.768Z,86.79
2019-05-20T10:57:40.243Z,87.00
2019-05-20T11:00:09.243Z,86.79
2019-05-20T11:02:37.732Z,85.56
2019-05-20T11:05:07.165Z,84.81
2019-05-20T11:07:35.751Z,84.86
2019-05-20T11:10:06.159Z,84.57
2019-05-20T11:12:34.643Z,86.04
2019-05-20T11:15:03.565Z,85.56
2019-05-20T11:17:32.089Z,84.94
2019-05-20T11:20:00.577Z,83.40
2019-05-20T11:22:29.054Z,83.13
2019-05-20T11:24:57.525Z,83.56
2019-05-20T11:27:26.297Z,82.18
2019-05-20T11:29:54.751Z,82.66
2019-05-20T11:32:23.224Z,83.84
2019-05-20T11:34:51.683Z,84.26
2019-05-20T11:37:20.143Z,84.79
2019-05-20T11:39:48.774Z,84.12
2019-05-20T11:42:17.210Z,83.40
2019-05-20T11:44:45.775Z,82.52
2019-05-20T11:47:14.255Z,82.76
2019-05-20T11:49:42.726Z,83.22
2019-05-20T11:52:11.348Z,83.84
2019-05-20T11:54:39.826Z,83.77
2019-05-20T11:57:08.314Z,83.84
2019-05-20T11:59:36.758Z,83.92
2019-05-20T12:02:05.297Z,84.01
2019-05-20T12:04:33.840Z,82.38
2019-05-20T12:07:02.316Z,82.25
2019-05-20T12:09:30.822Z,81.47
2019-05-20T12:11:59.281Z,81.29
2019-05-20T12:14:27.771Z,82.41
2019-05-20T12:16:56.245Z,80.87
2019-05-20T12:19:24.728Z,81.62
2019-05-20T12:21:53.176Z,82.80
2019-05-20T12:24:21.653Z,82.24
2019-05-20T12:26:50.129Z,82.74
2019-05-20T12:29:18.611Z,79.54
2019-05-20T12:31:47.063Z,75.65
2019-05-20T12:34:15.546Z,77.47
2019-05-20T12:36:44.001Z,78.00
2019-05-20T12:39:12.779Z,74.87
2019-05-20T12:41:41.249Z,77.96
2019-05-20T12:44:12.979Z,77.84
2019-05-20T12:46:39.860Z,78.62
2019-05-20T12:49:08.451Z,75.91
2019-05-20T12:51:37.021Z,78.09
2019-05-20T12:54:05.593Z,80.67
2019-05-20T12:56:34.101Z,83.01
2019-05-20T12:59:02.573Z,81.02
2019-05-20T13:01:31.058Z,78.79
2019-05-20T13:03:59.592Z,79.97
2019-05-20T13:06:28.063Z,77.40
2019-05-20T13:08:56.588Z,76.79
2019-05-20T13:11:25.166Z,77.08
2019-05-20T13:13:53.620Z,76.49
2019-05-20T13:16:22.075Z,77.22
2019-05-20T13:18:55.861Z,79.30
2019-05-20T13:21:20.727Z,79.07
2019-05-20T13:23:49.396Z,78.53
2019-05-20T13:26:18.179Z,79.29
2019-05-20T13:28:46.826Z,77.12
2019-05-20T13:31:15.282Z,76.64
2019-05-20T13:33:43.764Z,79.20
2019-05-20T13:36:12.339Z,78.38
2019-05-20T13:38:40.811Z,77.46
2019-05-20T13:41:09.288Z,78.52
2019-05-20T13:43:37.933Z,81.16
2019-05-20T13:46:06.412Z,81.22
2019-05-20T13:48:34.858Z,80.83
2019-05-20T13:51:03.345Z,82.15
2019-05-20T13:53:31.806Z,82.28
2019-05-20T13:56:00.256Z,82.67
2019-05-20T13:58:28.756Z,82.00
2019-05-20T14:00:57.272Z,80.76
2019-05-20T14:03:25.803Z,80.63
2019-05-20T14:05:54.382Z,80.51
2019-05-20T14:08:22.852Z,80.53
2019-05-20T14:11:03.819Z,81.13
2019-05-20T14:13:21.553Z,80.37
2019-05-20T14:15:50.067Z,80.67
2019-05-20T14:18:18.564Z,81.79
2019-05-20T14:20:47.002Z,81.96
2019-05-20T14:23:15.505Z,81.58
2019-05-20T14:25:44.490Z,81.55
2019-05-20T14:28:12.931Z,81.55
2019-05-20T14:30:41.383Z,81.57
2019-05-20T14:33:09.898Z,81.63
2019-05-20T14:35:38.373Z,82.29
2019-05-20T14:38:06.814Z,83.21
2019-05-20T14:40:35.296Z,83.07
2019-05-20T14:43:03.958Z,83.31
2019-05-20T14:45:32.500Z,83.28
2019-05-20T14:48:00.953Z,83.72
2019-05-20T14:50:31.081Z,83.89
2019-05-20T14:52:59.540Z,83.87
2019-05-20T14:55:28.048Z,84.71
2019-05-20T14:57:56.505Z,84.93
2019-05-20T15:00:25.063Z,84.83
2019-05-20T15:02:53.517Z,84.15
2019-05-20T15:05:21.951Z,83.78
2019-05-20T15:07:50.607Z,83.66
2019-05-20T15:10:19.415Z,83.47
2019-05-20T15:12:47.868Z,83.59
2019-05-20T15:15:17.210Z,83.04
2019-05-20T15:17:45.649Z,83.51
2019-05-20T15:20:14.270Z,83.69
2019-05-20T15:22:42.995Z,82.37
2019-05-20T15:25:11.768Z,82.62
2019-05-20T15:27:40.264Z,83.13
2019-05-20T15:30:09.749Z,83.42
2019-05-20T15:32:38.198Z,84.36
2019-05-20T15:35:06.899Z,84.29
2019-05-20T15:37:35.441Z,83.62
2019-05-20T15:40:04.335Z,83.46
2019-05-20T15:42:32.799Z,83.79
2019-05-20T15:45:01.272Z,83.59
2019-05-20T15:47:29.710Z,82.67
2019-05-20T15:49:58.212Z,83.61
2019-05-20T15:52:26.669Z,83.70
2019-05-20T15:54:55.160Z,83.50
2019-05-20T15:57:23.594Z,83.16
2019-05-20T15:59:52.067Z,83.11
2019-05-20T16:02:20.541Z,82.58
2019-05-20T16:04:49.012Z,83.24
2019-05-20T16:07:17.496Z,84.08
2019-05-20T16:09:46.164Z,85.03
2019-05-20T16:12:14.697Z,85.16
2019-05-20T16:14:43.154Z,85.06
2019-05-20T16:17:11.694Z,85.07
2019-05-20T16:19:40.195Z,84.44
2019-05-20T16:22:08.708Z,84.63
2019-05-20T16:24:37.165Z,85.21
2019-05-20T16:27:05.645Z,85.44
2019-05-20T16:29:34.091Z,85.21
2019-05-20T16:32:02.622Z,85.26
2019-05-20T16:34:31.102Z,85.65
2019-05-20T16:36:59.556Z,85.90
2019-05-20T16:39:30.919Z,85.99
2019-05-20T16:41:58.377Z,85.78
2019-05-20T16:44:26.817Z,85.73
2019-05-20T16:46:55.270Z,85.65
2019-05-20T16:49:23.747Z,85.72
2019-05-20T16:51:52.289Z,86.31
2019-05-20T16:54:20.763Z,86.25
2019-05-20T16:56:49.208Z,86.49
2019-05-20T16:59:17.713Z,86.29
2019-05-20T17:01:46.785Z,86.26
2019-05-20T17:04:15.269Z,86.53
2019-05-20T17:06:43.732Z,86.46
2019-05-20T17:09:12.292Z,86.42
2019-05-20T17:11:40.835Z,86.04
2019-05-20T17:14:10.677Z,85.11
2019-05-20T17:16:39.482Z,84.33
2019-05-20T17:19:08.002Z,83.95
2019-05-20T17:21:36.475Z,84.24
2019-05-20T17:24:05.070Z,84.86
2019-05-20T17:26:33.649Z,84.92
2019-05-20T17:29:02.311Z,85.25
2019-05-20T17:31:31.071Z,85.63
2019-05-20T17:33:59.555Z,85.46
2019-05-20T17:36:28.073Z,85.77
2019-05-20T17:38:56.559Z,84.97
2019-05-20T17:41:25.086Z,85.28
2019-05-20T17:43:53.671Z,85.40
2019-05-20T17:46:22.335Z,85.78
2019-05-20T17:48:50.896Z,86.45
2019-05-20T17:51:19.443Z,86.69
2019-05-20T17:53:48.008Z,86.49
2019-05-20T17:56:16.499Z,86.60
2019-05-20T17:58:44.989Z,86.42
2019-05-20T18:01:15.836Z,86.54
2019-05-20T18:03:43.763Z,86.45
2019-05-20T18:06:12.219Z,86.28
2019-05-20T18:08:42.348Z,86.11
2019-05-20T18:11:10.836Z,86.22
2019-05-20T18:13:39.321Z,86.71
2019-05-20T18:16:07.782Z,86.73
2019-05-20T18:18:36.391Z,87.47
2019-05-20T18:21:04.960Z,87.64
2019-05-20T18:23:33.397Z,87.62
2019-05-20T18:26:03.684Z,87.37
2019-05-20T18:28:32.364Z,87.87
2019-05-20T18:31:00.833Z,87.72
2019-05-20T18:33:29.326Z,87.95
2019-05-20T18:35:57.778Z,88.04
2019-05-20T18:38:26.257Z,88.13
2019-05-20T18:40:54.740Z,87.86
2019-05-20T18:43:23.219Z,87.57
2019-05-20T18:45:51.656Z,87.49
2019-05-20T18:48:20.115Z,87.23
2019-05-20T18:50:48.598Z,87.49
2019-05-20T18:53:17.106Z,87.50
2019-05-20T18:55:45.639Z,87.62
2019-05-20T18:58:14.120Z,87.73
2019-05-20T19:00:42.646Z,87.67
2019-05-20T19:03:11.180Z,87.58
2019-05-20T19:05:39.738Z,87.92
2019-05-20T19:08:08.204Z,88.12
2019-05-20T19:10:36.683Z,88.38
2019-05-20T19:13:05.411Z,88.46
2019-05-20T19:15:34.115Z,88.67
2019-05-20T19:18:02.749Z,88.97
2019-05-20T19:20:31.337Z,88.90
2019-05-20T19:22:59.863Z,88.78
2019-05-20T19:25:37.441Z,88.78
2019-05-20T19:27:58.565Z,88.88
2019-05-20T19:30:27.109Z,88.56
2019-05-20T19:32:55.624Z,89.13
2019-05-20T19:35:24.173Z,89.16
2019-05-20T19:37:52.621Z,89.28
2019-05-20T19:40:21.168Z,89.10
2019-05-20T19:42:49.620Z,89.25
2019-05-20T19:45:18.197Z,89.29
2019-05-20T19:47:46.649Z,88.94
2019-05-20T19:50:15.370Z,89.17
2019-05-20T19:52:43.897Z,89.23
2019-05-20T19:55:12.464Z,89.28
2019-05-20T19:57:41.048Z,89.31
2019-05-20T20:00:09.956Z,89.50
2019-05-20T20:02:38.415Z,89.76
2019-05-20T20:05:10.251Z,89.66
2019-05-20T20:07:38.714Z,89.49
2019-05-20T20:10:07.696Z,89.49
2019-05-20T20:12:36.172Z,89.46
2019-05-20T20:15:08.564Z,89.33
2019-05-20T20:17:37.019Z,89.51
2019-05-20T20:20:06.265Z,89.32
2019-05-20T20:22:34.735Z,89.17
2019-05-20T20:25:03.471Z,89.20
2019-05-20T20:27:31.956Z,89.37
2019-05-20T20:30:00.446Z,89.22
2019-05-20T20:32:37.808Z,89.41
2019-05-20T20:34:59.100Z,89.35
2019-05-20T20:37:27.579Z,89.69
2019-05-20T20:39:56.052Z,90.05
2019-05-20T20:42:24.530Z,90.09
2019-05-20T20:44:53.017Z,90.55
2019-05-20T20:47:21.459Z,90.46
2019-05-20T20:49:49.916Z,90.43
2019-05-20T20:52:18.405Z,90.17
2019-05-20T20:54:46.872Z,90.09
2019-05-20T20:57:15.392Z,90.04
2019-05-20T20:59:43.871Z,89.39
2019-05-20T21:02:12.336Z,89.77
2019-05-20T21:04:40.992Z,90.01
2019-05-20T21:07:09.475Z,90.12
2019-05-20T21:09:38.000Z,89.73
2019-05-20T21:12:06.435Z,89.88
2019-05-20T21:14:34.913Z,90.07
2019-05-20T21:17:03.440Z,90.13
2019-05-20T21:19:31.937Z,90.26
2019-05-20T21:22:00.457Z,90.32
2019-05-20T21:24:28.945Z,90.29
2019-05-20T21:26:57.425Z,90.19
2019-05-20T21:29:25.910Z,90.28
2019-05-20T21:31:54.359Z,90.38
2019-05-20T21:34:22.827Z,90.41
2019-05-20T21:36:51.274Z,90.67
2019-05-20T21:39:19.706Z,90.57
2019-05-20T21:41:48.266Z,90.82
2019-05-20T21:44:16.708Z,90.95
2019-05-20T21:46:45.173Z,90.66
2019-05-20T21:49:13.631Z,90.48
2019-05-20T21:51:42.112Z,90.67
2019-05-20T21:54:10.576Z,90.78
2019-05-20T21:56:39.027Z,90.82
2019-05-20T21:59:07.606Z,90.72
2019-05-20T22:01:36.063Z,90.58
2019-05-20T22:04:04.795Z,90.11
2019-05-20T22:06:33.293Z,90.30
2019-05-20T22:09:01.763Z,90.29
2019-05-20T22:11:30.248Z,90.60
2019-05-20T22:13:58.716Z,90.45
2019-05-20T22:16:29.784Z,90.52
2019-05-20T22:18:57.737Z,90.77
2019-05-20T22:21:39.900Z,90.92
2019-05-20T22:24:08.952Z,90.86
2019-05-20T22:26:37.437Z,90.79
2019-05-20T22:29:05.890Z,90.58
2019-05-20T22:31:34.361Z,90.67
2019-05-20T22:34:02.869Z,91.00
2019-05-20T22:36:31.376Z,91.20
2019-05-20T22:38:59.827Z,91.00
2019-05-20T22:41:28.469Z,90.88
2019-05-20T22:43:56.921Z,90.93
2019-05-20T22:46:25.474Z,90.83
2019-05-20T22:48:53.930Z,90.81
2019-05-20T22:51:22.393Z,90.43
2019-05-20T22:53:50.868Z,90.43
2019-05-20T22:56:19.347Z,90.43
2019-05-20T22:58:47.940Z,90.60
2019-05-20T23:01:16.422Z,90.38
2019-05-20T23:03:55.980Z,90.28
2019-05-20T23:06:15.092Z,90.38
2019-05-20T23:08:43.583Z,90.19
2019-05-20T23:11:12.079Z,90.34
2019-05-20T23:13:40.538Z,90.50
2019-05-20T23:16:09.156Z,90.69
2019-05-20T23:18:37.624Z,90.59
2019-05-20T23:21:06.068Z,90.57
2019-05-20T23:23:34.553Z,90.27
2019-05-20T23:26:03.009Z,90.43
2019-05-20T23:28:31.521Z,90.17
2019-05-20T23:30:59.981Z,90.25
2019-05-20T23:33:28.464Z,90.43
2019-05-20T23:35:56.946Z,90.48
2019-05-20T23:38:25.412Z,90.07
2019-05-20T23:40:53.888Z,90.30
2019-05-20T23:43:22.358Z,90.45
2019-05-20T23:45:50.800Z,90.85
2019-05-20T23:48:19.270Z,90.92
2019-05-20T23:50:47.727Z,90.79
2019-05-20T23:53:16.208Z,90.78
2019-05-20T23:55:45.612Z,90.51
2019-05-20T23:58:14.108Z,90.21
